Terminal Aerodrome Forecast
Issued by NWS

Home | Current Version | Previous Version | Text Only | Print | Product List | Glossary On
Versions: 1 2 3 4 5 6 7 8 9 10 11 12 13 14 15 16 17
593
FTUS41 KBTV 232339
TAFSLK
TAF
KSLK 232339Z 2400/2424 23006KT P6SM VCSH OVC020
      TEMPO 2400/2404 1SM SHRA BR OVC015
     FM240400 23006KT 1SM BR VCSH OVC003
     FM241100 24006KT 6SM BR BKN008
     FM241300 25008KT P6SM SCT020
     FM242000 25011G17KT P6SM VCSH SCT050=

USA.gov is the U.S. government's official web portal to all federal, state and local government web resources and services.